Roswell, New Mexico
Current Conditions -  °F | °C
As of 6:51 PM on Wednesday 26 Nov 2014 (Local Time) from KROW Reporting Station
Clear Clear  
Wind Chill: 42°   Ceiling: Unl
Heat Index: 45°   Visibility: 10mi
Dew Point: 26°   Wind: 6mph
Humidity: 48%   Direction: 240°WSW
Pressure: 30.27"   Gusts: NA
Location:  33.39°N, 104.52°W
Report Text: KROW 270151Z 24005KT 10SM CLR 07/M03 A3027 RMK AO2 SLP248 T00721033
Loading
Personal Weather Stations






























Interactive Weather Map New forecast layout! Learn more

10-Day Weather Forecast

Advertisements
Track Severe Weather on mobile